sensor_id;sensor_type;location;lat;lon;timestamp;pressure;altitude;pressure_sealevel;temperature;humidity
36932;BME280;22847;42.654;23.370;2023-03-14T00:02:16;94892.19;;;6.53;41.79
36932;BME280;22847;42.654;23.370;2023-03-14T00:04:41;94824.25;;;5.93;42.89
36932;BME280;22847;42.654;23.370;2023-03-14T00:07:07;94881.25;;;5.67;43.96
36932;BME280;22847;42.654;23.370;2023-03-14T00:09:35;94851.25;;;5.41;44.83
36932;BME280;22847;42.654;23.370;2023-03-14T00:12:00;94878.63;;;5.80;44.29
36932;BME280;22847;42.654;23.370;2023-03-14T00:14:25;94894.19;;;5.67;44.73
36932;BME280;22847;42.654;23.370;2023-03-14T00:16:51;94839.53;;;5.72;43.80
36932;BME280;22847;42.654;23.370;2023-03-14T00:19:16;94679.19;;;5.26;43.13
36932;BME280;22847;42.654;23.370;2023-03-14T00:21:42;94885.63;;;6.60;42.65
36932;BME280;22847;42.654;23.370;2023-03-14T00:24:08;94898.81;;;6.68;42.14
36932;BME280;22847;42.654;23.370;2023-03-14T00:26:33;94854.78;;;6.68;41.87
36932;BME280;22847;42.654;23.370;2023-03-14T00:28:59;94797.09;;;5.98;42.82
36932;BME280;22847;42.654;23.370;2023-03-14T00:31:24;94847.13;;;6.10;42.89
36932;BME280;22847;42.654;23.370;2023-03-14T00:33:52;94840.50;;;6.63;42.26
36932;BME280;22847;42.654;23.370;2023-03-14T00:36:18;94801.16;;;6.24;42.74
36932;BME280;22847;42.654;23.370;2023-03-14T00:38:47;94832.50;;;6.55;42.71
36932;BME280;22847;42.654;23.370;2023-03-14T00:41:19;94603.25;;;5.16;42.86
36932;BME280;22847;42.654;23.370;2023-03-14T00:43:44;94729.78;;;5.87;42.96
36932;BME280;22847;42.654;23.370;2023-03-14T00:46:11;94819.88;;;6.28;43.83
36932;BME280;22847;42.654;23.370;2023-03-14T00:48:37;94751.63;;;5.13;45.66
36932;BME280;22847;42.654;23.370;2023-03-14T00:51:07;94839.38;;;6.10;44.90
36932;BME280;22847;42.654;23.370;2023-03-14T00:53:36;94851.69;;;5.71;45.49
36932;BME280;22847;42.654;23.370;2023-03-14T00:56:04;94805.88;;;5.61;45.02
36932;BME280;22847;42.654;23.370;2023-03-14T00:58:30;94788.03;;;5.69;45.37
36932;BME280;22847;42.654;23.370;2023-03-14T01:00:55;94569.59;;;4.59;44.74
36932;BME280;22847;42.654;23.370;2023-03-14T01:03:21;94823.16;;;6.19;44.69
36932;BME280;22847;42.654;23.370;2023-03-14T01:05:46;94804.88;;;5.98;44.48
36932;BME280;22847;42.654;23.370;2023-03-14T01:08:12;94800.44;;;6.22;44.60
36932;BME280;22847;42.654;23.370;2023-03-14T01:10:39;94823.66;;;5.89;45.77
36932;BME280;22847;42.654;23.370;2023-03-14T01:13:05;94804.31;;;6.17;45.04
36932;BME280;22847;42.654;23.370;2023-03-14T01:15:34;94595.28;;;4.60;45.82
36932;BME280;22847;42.654;23.370;2023-03-14T01:18:00;94575.19;;;4.53;45.60
36932;BME280;22847;42.654;23.370;2023-03-14T01:20:26;94600.16;;;5.00;44.71
36932;BME280;22847;42.654;23.370;2023-03-14T01:22:51;94779.00;;;6.09;44.99
36932;BME280;22847;42.654;23.370;2023-03-14T01:25:17;94823.44;;;6.38;44.78
36932;BME280;22847;42.654;23.370;2023-03-14T01:27:43;94830.22;;;6.28;44.88
36932;BME280;22847;42.654;23.370;2023-03-14T01:30:10;94560.59;;;4.99;44.57
36932;BME280;22847;42.654;23.370;2023-03-14T01:32:37;94832.50;;;6.55;44.56
36932;BME280;22847;42.654;23.370;2023-03-14T01:35:03;94575.88;;;4.78;45.42
36932;BME280;22847;42.654;23.370;2023-03-14T01:37:29;94767.59;;;5.18;47.06
36932;BME280;22847;42.654;23.370;2023-03-14T01:39:54;94802.63;;;4.99;48.12
36932;BME280;22847;42.654;23.370;2023-03-14T01:42:20;94773.94;;;5.38;47.08
36932;BME280;22847;42.654;23.370;2023-03-14T01:44:59;94592.78;;;4.71;46.34
36932;BME280;22847;42.654;23.370;2023-03-14T01:47:25;94753.69;;;6.02;46.00
36932;BME280;22847;42.654;23.370;2023-03-14T01:50:11;94772.81;;;6.34;45.80
36932;BME280;22847;42.654;23.370;2023-03-14T01:52:47;94598.09;;;5.27;45.66
36932;BME280;22847;42.654;23.370;2023-03-14T01:55:19;94742.28;;;6.04;45.52
36932;BME280;22847;42.654;23.370;2023-03-14T01:57:53;94760.91;;;6.32;45.85
36932;BME280;22847;42.654;23.370;2023-03-14T02:00:21;94531.78;;;4.92;45.68
36932;BME280;22847;42.654;23.370;2023-03-14T02:02:58;94801.28;;;6.34;45.64
36932;BME280;22847;42.654;23.370;2023-03-14T02:05:28;94766.06;;;6.09;45.76
36932;BME280;22847;42.654;23.370;2023-03-14T02:07:59;94812.88;;;6.06;46.34
36932;BME280;22847;42.654;23.370;2023-03-14T02:10:28;94781.72;;;6.08;46.44
36932;BME280;22847;42.654;23.370;2023-03-14T02:12:56;94716.19;;;5.72;46.78
36932;BME280;22847;42.654;23.370;2023-03-14T02:15:24;94770.47;;;5.85;46.82
36932;BME280;22847;42.654;23.370;2023-03-14T02:17:51;94788.75;;;6.06;47.17
36932;BME280;22847;42.654;23.370;2023-03-14T02:22:51;94759.31;;;5.96;48.02
36932;BME280;22847;42.654;23.370;2023-03-14T02:28:00;94752.63;;;5.58;48.66
36932;BME280;22847;42.654;23.370;2023-03-14T02:30:28;94539.78;;;4.55;48.91
36932;BME280;22847;42.654;23.370;2023-03-14T02:33:04;94773.25;;;5.82;48.95
36932;BME280;22847;42.654;23.370;2023-03-14T02:35:39;94527.00;;;4.64;48.65
36932;BME280;22847;42.654;23.370;2023-03-14T02:40:52;94759.38;;;6.07;48.57
36932;BME280;22847;42.654;23.370;2023-03-14T02:43:17;94624.75;;;5.27;48.35
36932;BME280;22847;42.654;23.370;2023-03-14T02:45:45;94763.00;;;6.04;48.69
36932;BME280;22847;42.654;23.370;2023-03-14T02:48:16;94731.28;;;5.78;48.68
36932;BME280;22847;42.654;23.370;2023-03-14T02:50:43;94731.38;;;5.77;48.07
36932;BME280;22847;42.654;23.370;2023-03-14T02:53:12;94517.41;;;4.42;48.23
36932;BME280;22847;42.654;23.370;2023-03-14T02:55:39;94800.13;;;5.92;48.02
36932;BME280;22847;42.654;23.370;2023-03-14T02:58:04;94599.03;;;4.91;47.55
36932;BME280;22847;42.654;23.370;2023-03-14T03:00:30;94438.75;;;3.89;47.48
36932;BME280;22847;42.654;23.370;2023-03-14T03:02:55;94755.13;;;5.71;47.76
36932;BME280;22847;42.654;23.370;2023-03-14T03:05:21;94745.31;;;5.63;48.23
36932;BME280;22847;42.654;23.370;2023-03-14T03:07:46;94534.16;;;4.37;48.18
36932;BME280;22847;42.654;23.370;2023-03-14T03:10:12;94714.03;;;5.55;48.10
36932;BME280;22847;42.654;23.370;2023-03-14T03:12:37;94756.91;;;5.81;48.12
36932;BME280;22847;42.654;23.370;2023-03-14T03:15:03;94539.72;;;4.43;48.51
36932;BME280;22847;42.654;23.370;2023-03-14T03:17:28;94767.38;;;5.80;48.75
36932;BME280;22847;42.654;23.370;2023-03-14T03:19:54;94708.47;;;5.37;48.80
36932;BME280;22847;42.654;23.370;2023-03-14T03:22:19;94772.97;;;5.63;48.93
36932;BME280;22847;42.654;23.370;2023-03-14T03:24:44;94756.41;;;5.65;48.95
36932;BME280;22847;42.654;23.370;2023-03-14T03:27:10;94527.22;;;4.26;48.71
36932;BME280;22847;42.654;23.370;2023-03-14T03:29:35;94748.63;;;5.65;48.86
36932;BME280;22847;42.654;23.370;2023-03-14T03:32:00;94569.03;;;4.42;48.93
36932;BME280;22847;42.654;23.370;2023-03-14T03:34:27;94752.53;;;5.71;48.88
36932;BME280;22847;42.654;23.370;2023-03-14T03:36:56;94741.84;;;5.75;48.67
36932;BME280;22847;42.654;23.370;2023-03-14T03:39:21;94762.28;;;5.67;48.79
36932;BME280;22847;42.654;23.370;2023-03-14T03:41:46;94748.56;;;5.78;48.71
36932;BME280;22847;42.654;23.370;2023-03-14T03:44:12;94697.28;;;5.37;48.70
36932;BME280;22847;42.654;23.370;2023-03-14T03:46:37;94712.38;;;5.43;48.74
36932;BME280;22847;42.654;23.370;2023-03-14T03:49:03;94714.72;;;5.46;48.80
36932;BME280;22847;42.654;23.370;2023-03-14T03:51:28;94770.75;;;5.69;48.75
36932;BME280;22847;42.654;23.370;2023-03-14T03:53:54;94690.88;;;5.19;48.46
36932;BME280;22847;42.654;23.370;2023-03-14T03:56:20;94761.31;;;5.57;48.57
36932;BME280;22847;42.654;23.370;2023-03-14T03:58:46;94737.56;;;5.28;48.71
36932;BME280;22847;42.654;23.370;2023-03-14T04:01:11;94788.69;;;5.49;49.02
36932;BME280;22847;42.654;23.370;2023-03-14T04:03:37;94739.13;;;5.07;49.28
36932;BME280;22847;42.654;23.370;2023-03-14T04:06:08;94785.69;;;5.42;49.16
36932;BME280;22847;42.654;23.370;2023-03-14T04:08:33;94788.38;;;5.40;49.51
36932;BME280;22847;42.654;23.370;2023-03-14T04:11:00;94747.09;;;5.04;49.84
36932;BME280;22847;42.654;23.370;2023-03-14T04:13:27;94703.88;;;4.82;50.01
36932;BME280;22847;42.654;23.370;2023-03-14T04:15:53;94780.66;;;5.17;50.34
36932;BME280;22847;42.654;23.370;2023-03-14T04:18:19;94751.88;;;4.98;49.99
36932;BME280;22847;42.654;23.370;2023-03-14T04:20:45;94700.53;;;4.93;49.97
36932;BME280;22847;42.654;23.370;2023-03-14T04:23:11;94631.91;;;4.54;49.77
36932;BME280;22847;42.654;23.370;2023-03-14T04:25:36;94594.59;;;4.34;50.11
36932;BME280;22847;42.654;23.370;2023-03-14T04:28:02;94788.78;;;5.47;50.05
36932;BME280;22847;42.654;23.370;2023-03-14T04:30:29;94588.44;;;4.48;49.99
36932;BME280;22847;42.654;23.370;2023-03-14T04:32:55;94694.53;;;5.16;49.88
36932;BME280;22847;42.654;23.370;2023-03-14T04:35:20;94744.59;;;5.50;50.28
36932;BME280;22847;42.654;23.370;2023-03-14T04:37:45;94717.97;;;5.37;50.07
36932;BME280;22847;42.654;23.370;2023-03-14T04:40:14;94732.56;;;5.38;50.20
36932;BME280;22847;42.654;23.370;2023-03-14T04:42:40;94715.78;;;5.44;50.20
36932;BME280;22847;42.654;23.370;2023-03-14T04:45:06;94735.22;;;5.60;50.00
36932;BME280;22847;42.654;23.370;2023-03-14T04:47:32;94729.22;;;5.60;49.79
36932;BME280;22847;42.654;23.370;2023-03-14T04:49:57;94726.28;;;5.64;49.52
36932;BME280;22847;42.654;23.370;2023-03-14T04:52:22;94760.16;;;5.72;49.48
36932;BME280;22847;42.654;23.370;2023-03-14T04:54:48;94345.47;;;3.37;49.33
36932;BME280;22847;42.654;23.370;2023-03-14T04:57:13;94501.56;;;4.36;49.35
36932;BME280;22847;42.654;23.370;2023-03-14T04:59:38;94757.88;;;5.80;49.11
36932;BME280;22847;42.654;23.370;2023-03-14T05:02:04;94721.59;;;5.58;48.98
36932;BME280;22847;42.654;23.370;2023-03-14T05:04:29;94514.06;;;4.53;49.17
36932;BME280;22847;42.654;23.370;2023-03-14T05:06:58;94697.16;;;5.62;49.28
36932;BME280;22847;42.654;23.370;2023-03-14T05:09:23;94478.53;;;4.22;49.14
36932;BME280;22847;42.654;23.370;2023-03-14T05:11:48;94512.72;;;4.36;49.21
36932;BME280;22847;42.654;23.370;2023-03-14T05:14:14;94724.91;;;5.71;49.41
36932;BME280;22847;42.654;23.370;2023-03-14T05:16:39;94679.44;;;5.45;49.23
36932;BME280;22847;42.654;23.370;2023-03-14T05:19:05;94727.94;;;5.65;48.97
36932;BME280;22847;42.654;23.370;2023-03-14T05:21:30;94769.63;;;5.84;49.11
36932;BME280;22847;42.654;23.370;2023-03-14T05:23:55;94661.25;;;5.47;48.90
36932;BME280;22847;42.654;23.370;2023-03-14T05:26:21;94487.88;;;4.46;48.94
36932;BME280;22847;42.654;23.370;2023-03-14T05:28:46;94710.22;;;5.83;49.00
36932;BME280;22847;42.654;23.370;2023-03-14T05:31:12;94471.28;;;4.38;48.69
36932;BME280;22847;42.654;23.370;2023-03-14T05:33:37;94722.16;;;5.97;48.53
36932;BME280;22847;42.654;23.370;2023-03-14T05:36:03;94716.75;;;6.00;48.30
36932;BME280;22847;42.654;23.370;2023-03-14T05:38:28;94752.06;;;6.12;48.46
36932;BME280;22847;42.654;23.370;2023-03-14T05:40:54;94699.59;;;5.99;48.16
36932;BME280;22847;42.654;23.370;2023-03-14T05:43:19;94683.28;;;4.93;50.15
36932;BME280;22847;42.654;23.370;2023-03-14T05:45:44;94769.09;;;5.68;49.30
36932;BME280;22847;42.654;23.370;2023-03-14T05:48:10;94705.03;;;4.42;52.31
36932;BME280;22847;42.654;23.370;2023-03-14T05:50:36;94545.22;;;3.04;53.52
36932;BME280;22847;42.654;23.370;2023-03-14T05:53:02;94724.97;;;5.00;52.67
36932;BME280;22847;42.654;23.370;2023-03-14T05:55:27;94713.94;;;7.44;46.56
36932;BME280;22847;42.654;23.370;2023-03-14T05:57:53;94684.00;;;10.63;39.42
36932;BME280;22847;42.654;23.370;2023-03-14T06:00:20;94674.22;;;11.38;36.02
36932;BME280;22847;42.654;23.370;2023-03-14T06:02:45;94707.47;;;13.50;32.98
36932;BME280;22847;42.654;23.370;2023-03-14T06:05:11;94706.09;;;12.20;34.64
36932;BME280;22847;42.654;23.370;2023-03-14T06:07:37;94716.19;;;11.27;36.57
36932;BME280;22847;42.654;23.370;2023-03-14T06:10:02;94706.91;;;13.22;33.17
36932;BME280;22847;42.654;23.370;2023-03-14T06:12:28;94712.56;;;14.57;31.28
36932;BME280;22847;42.654;23.370;2023-03-14T06:14:53;94686.53;;;16.39;28.20
36932;BME280;22847;42.654;23.370;2023-03-14T06:17:19;94723.84;;;16.42;28.19
36932;BME280;22847;42.654;23.370;2023-03-14T06:19:44;94478.47;;;14.30;28.48
36932;BME280;22847;42.654;23.370;2023-03-14T06:22:10;94547.75;;;12.68;31.25
36932;BME280;22847;42.654;23.370;2023-03-14T06:24:35;94587.91;;;13.01;31.61
36932;BME280;22847;42.654;23.370;2023-03-14T06:27:00;94692.41;;;13.52;31.53
36932;BME280;22847;42.654;23.370;2023-03-14T06:29:28;94701.91;;;14.34;30.56
36932;BME280;22847;42.654;23.370;2023-03-14T06:31:53;94686.03;;;13.63;31.25
36932;BME280;22847;42.654;23.370;2023-03-14T06:34:19;94672.63;;;13.00;31.89
36932;BME280;22847;42.654;23.370;2023-03-14T06:36:44;94381.19;;;11.78;31.47
36932;BME280;22847;42.654;23.370;2023-03-14T06:39:10;94694.06;;;14.26;31.11
36932;BME280;22847;42.654;23.370;2023-03-14T06:41:35;94678.56;;;14.71;30.35
36932;BME280;22847;42.654;23.370;2023-03-14T06:44:00;94507.00;;;13.78;29.86
36932;BME280;22847;42.654;23.370;2023-03-14T06:46:26;94668.06;;;14.71;29.98
36932;BME280;22847;42.654;23.370;2023-03-14T06:48:51;94694.25;;;15.18;29.75
36932;BME280;22847;42.654;23.370;2023-03-14T06:51:17;94691.16;;;14.84;30.41
36932;BME280;22847;42.654;23.370;2023-03-14T06:53:42;94653.13;;;14.72;30.25
36932;BME280;22847;42.654;23.370;2023-03-14T06:56:08;94683.09;;;15.25;29.25
36932;BME280;22847;42.654;23.370;2023-03-14T06:58:33;94672.69;;;15.00;29.78
36932;BME280;22847;42.654;23.370;2023-03-14T07:00:59;94691.66;;;14.80;29.24
36932;BME280;22847;42.654;23.370;2023-03-14T07:03:24;94541.25;;;14.32;28.63
36932;BME280;22847;42.654;23.370;2023-03-14T07:05:50;94497.50;;;13.85;28.83
36932;BME280;22847;42.654;23.370;2023-03-14T07:08:15;94644.31;;;14.96;28.54
36932;BME280;22847;42.654;23.370;2023-03-14T07:10:40;94664.19;;;14.98;28.81
36932;BME280;22847;42.654;23.370;2023-03-14T07:13:06;94500.66;;;13.73;29.18
36932;BME280;22847;42.654;23.370;2023-03-14T07:15:31;94653.59;;;13.56;30.40
36932;BME280;22847;42.654;23.370;2023-03-14T07:17:56;94493.81;;;13.07;30.29
36932;BME280;22847;42.654;23.370;2023-03-14T07:20:22;94647.63;;;14.59;29.18
36932;BME280;22847;42.654;23.370;2023-03-14T07:22:49;94608.25;;;13.47;30.02
36932;BME280;22847;42.654;23.370;2023-03-14T07:25:14;94455.53;;;13.06;30.33
36932;BME280;22847;42.654;23.370;2023-03-14T07:27:43;94638.59;;;14.53;29.29
36932;BME280;22847;42.654;23.370;2023-03-14T07:30:09;94479.69;;;13.65;29.64
36932;BME280;22847;42.654;23.370;2023-03-14T07:32:34;94504.16;;;13.96;29.42
36932;BME280;22847;42.654;23.370;2023-03-14T07:35:00;94654.28;;;15.39;29.53
36932;BME280;22847;42.654;23.370;2023-03-14T07:37:25;94472.53;;;14.45;29.08
36932;BME280;22847;42.654;23.370;2023-03-14T07:39:51;94574.47;;;14.87;29.03
36932;BME280;22847;42.654;23.370;2023-03-14T07:42:16;94629.75;;;14.54;29.89
36932;BME280;22847;42.654;23.370;2023-03-14T07:44:41;94592.25;;;14.29;30.23
36932;BME280;22847;42.654;23.370;2023-03-14T07:47:07;94641.75;;;14.88;29.80
36932;BME280;22847;42.654;23.370;2023-03-14T07:49:32;94653.47;;;15.08;29.56
36932;BME280;22847;42.654;23.370;2023-03-14T07:51:57;94624.53;;;15.16;30.35
36932;BME280;22847;42.654;23.370;2023-03-14T07:54:24;94610.50;;;15.01;29.24
36932;BME280;22847;42.654;23.370;2023-03-14T07:56:50;94422.28;;;13.55;29.28
36932;BME280;22847;42.654;23.370;2023-03-14T07:59:16;94617.84;;;15.05;29.99
36932;BME280;22847;42.654;23.370;2023-03-14T08:01:41;94624.06;;;14.73;30.78
36932;BME280;22847;42.654;23.370;2023-03-14T08:04:07;94420.22;;;13.26;31.24
36932;BME280;22847;42.654;23.370;2023-03-14T08:06:32;94616.50;;;14.40;31.70
36932;BME280;22847;42.654;23.370;2023-03-14T08:08:58;94515.53;;;14.27;30.55
36932;BME280;22847;42.654;23.370;2023-03-14T08:11:23;94603.38;;;14.79;30.37
36932;BME280;22847;42.654;23.370;2023-03-14T08:13:48;94398.91;;;13.84;29.24
36932;BME280;22847;42.654;23.370;2023-03-14T08:16:16;94580.03;;;15.37;28.63
36932;BME280;22847;42.654;23.370;2023-03-14T08:18:42;94670.13;;;15.54;29.45
36932;BME280;22847;42.654;23.370;2023-03-14T08:21:08;94591.81;;;14.96;30.13
36932;BME280;22847;42.654;23.370;2023-03-14T08:23:33;94557.63;;;14.81;30.10
36932;BME280;22847;42.654;23.370;2023-03-14T08:25:59;94486.91;;;14.18;29.37
36932;BME280;22847;42.654;23.370;2023-03-14T08:28:24;94643.75;;;15.08;30.21
36932;BME280;22847;42.654;23.370;2023-03-14T08:30:55;94620.38;;;15.52;29.07
36932;BME280;22847;42.654;23.370;2023-03-14T08:33:21;94634.06;;;16.37;28.29
36932;BME280;22847;42.654;23.370;2023-03-14T08:35:46;94432.06;;;15.07;28.37
36932;BME280;22847;42.654;23.370;2023-03-14T08:38:11;94599.66;;;16.53;27.44
36932;BME280;22847;42.654;23.370;2023-03-14T08:40:37;94464.69;;;16.09;26.31
36932;BME280;22847;42.654;23.370;2023-03-14T08:43:02;94350.75;;;15.29;26.13
36932;BME280;22847;42.654;23.370;2023-03-14T08:45:27;94592.69;;;17.11;26.45
36932;BME280;22847;42.654;23.370;2023-03-14T08:47:53;94598.66;;;17.56;25.73
36932;BME280;22847;42.654;23.370;2023-03-14T08:50:18;94573.84;;;17.71;25.04
36932;BME280;22847;42.654;23.370;2023-03-14T08:52:44;94577.03;;;18.16;24.43
36932;BME280;22847;42.654;23.370;2023-03-14T08:55:10;94573.25;;;17.97;25.04
36932;BME280;22847;42.654;23.370;2023-03-14T08:57:35;94500.97;;;16.28;26.47
36932;BME280;22847;42.654;23.370;2023-03-14T09:00:03;94566.31;;;16.90;26.30
36932;BME280;22847;42.654;23.370;2023-03-14T09:02:31;94578.41;;;16.84;26.05
36932;BME280;22847;42.654;23.370;2023-03-14T09:04:56;94593.09;;;17.29;25.65
36932;BME280;22847;42.654;23.370;2023-03-14T09:07:21;94561.72;;;17.34;26.27
36932;BME280;22847;42.654;23.370;2023-03-14T09:09:47;94537.53;;;17.52;25.79
36932;BME280;22847;42.654;23.370;2023-03-14T09:12:12;94561.06;;;17.96;25.65
36932;BME280;22847;42.654;23.370;2023-03-14T09:14:38;94389.63;;;17.06;24.98
36932;BME280;22847;42.654;23.370;2023-03-14T09:17:04;94545.66;;;18.00;24.50
36932;BME280;22847;42.654;23.370;2023-03-14T09:19:29;94534.44;;;18.19;24.65
36932;BME280;22847;42.654;23.370;2023-03-14T09:21:55;94481.41;;;17.79;23.72
36932;BME280;22847;42.654;23.370;2023-03-14T09:24:21;94381.16;;;16.68;24.66
36932;BME280;22847;42.654;23.370;2023-03-14T09:26:46;94490.50;;;17.49;24.99
36932;BME280;22847;42.654;23.370;2023-03-14T09:29:12;94512.72;;;17.89;24.46
36932;BME280;22847;42.654;23.370;2023-03-14T09:31:37;94502.41;;;17.94;23.99
36932;BME280;22847;42.654;23.370;2023-03-14T09:34:03;94508.53;;;18.42;23.51
36932;BME280;22847;42.654;23.370;2023-03-14T09:36:28;94368.78;;;17.73;24.25
36932;BME280;22847;42.654;23.370;2023-03-14T09:38:54;94485.31;;;18.24;23.86
36932;BME280;22847;42.654;23.370;2023-03-14T09:41:27;94486.47;;;18.50;24.37
36932;BME280;22847;42.654;23.370;2023-03-14T09:44:19;94478.84;;;18.34;23.49
36932;BME280;22847;42.654;23.370;2023-03-14T09:46:49;94486.34;;;18.23;23.88
36932;BME280;22847;42.654;23.370;2023-03-14T09:49:28;94467.97;;;18.50;23.64
36932;BME280;22847;42.654;23.370;2023-03-14T09:51:56;94252.94;;;17.24;24.23
36932;BME280;22847;42.654;23.370;2023-03-14T09:56:56;94451.09;;;16.92;25.60
36932;BME280;22847;42.654;23.370;2023-03-14T09:59:22;94250.38;;;16.47;26.52
36932;BME280;22847;42.654;23.370;2023-03-14T10:01:47;94451.34;;;18.08;25.19
36932;BME280;22847;42.654;23.370;2023-03-14T10:04:17;94427.41;;;18.16;25.02
36932;BME280;22847;42.654;23.370;2023-03-14T10:06:46;94444.28;;;18.69;24.84
36932;BME280;22847;42.654;23.370;2023-03-14T10:09:20;94125.81;;;17.22;24.02
36932;BME280;22847;42.654;23.370;2023-03-14T10:11:57;94440.09;;;19.21;24.22
36932;BME280;22847;42.654;23.370;2023-03-14T10:14:32;94433.31;;;18.66;24.61
36932;BME280;22847;42.654;23.370;2023-03-14T10:17:05;94321.97;;;17.89;24.83
36932;BME280;22847;42.654;23.370;2023-03-14T10:19:32;94398.88;;;18.40;25.21
36932;BME280;22847;42.654;23.370;2023-03-14T10:22:00;94460.56;;;18.73;25.29
36932;BME280;22847;42.654;23.370;2023-03-14T10:24:32;94399.03;;;19.12;25.84
36932;BME280;22847;42.654;23.370;2023-03-14T10:29:26;94358.50;;;18.52;25.30
36932;BME280;22847;42.654;23.370;2023-03-14T10:31:59;94390.25;;;18.05;26.13
36932;BME280;22847;42.654;23.370;2023-03-14T10:34:33;94213.47;;;17.37;26.25
36932;BME280;22847;42.654;23.370;2023-03-14T10:37:18;94350.94;;;18.43;26.12
36932;BME280;22847;42.654;23.370;2023-03-14T10:39:51;94191.59;;;17.57;26.24
36932;BME280;22847;42.654;23.370;2023-03-14T10:42:28;94331.28;;;18.45;26.33
36932;BME280;22847;42.654;23.370;2023-03-14T10:45:01;94355.31;;;18.96;26.33
36932;BME280;22847;42.654;23.370;2023-03-14T10:47:29;94345.75;;;19.02;26.20
36932;BME280;22847;42.654;23.370;2023-03-14T10:49:55;94295.53;;;17.69;27.39
36932;BME280;22847;42.654;23.370;2023-03-14T10:52:29;94332.81;;;18.13;26.79
36932;BME280;22847;42.654;23.370;2023-03-14T10:54:59;94323.53;;;18.31;26.60
36932;BME280;22847;42.654;23.370;2023-03-14T10:57:25;94342.97;;;18.10;27.03
36932;BME280;22847;42.654;23.370;2023-03-14T10:59:52;94249.25;;;17.25;26.63
36932;BME280;22847;42.654;23.370;2023-03-14T11:15:35;94273.22;;;18.58;27.37
36932;BME280;22847;42.654;23.370;2023-03-14T11:21:02;94284.59;;;18.79;27.29
36932;BME280;22847;42.654;23.370;2023-03-14T11:26:13;94272.59;;;18.83;26.24
36932;BME280;22847;42.654;23.370;2023-03-14T11:28:48;94059.44;;;17.86;25.65
36932;BME280;22847;42.654;23.370;2023-03-14T11:31:27;94226.66;;;19.03;25.00
36932;BME280;22847;42.654;23.370;2023-03-14T11:37:13;94076.25;;;18.11;25.41
36932;BME280;22847;42.654;23.370;2023-03-14T11:39:19;94231.19;;;19.41;25.52
36932;BME280;22847;42.654;23.370;2023-03-14T11:42:02;94206.41;;;19.48;24.92
36932;BME280;22847;42.654;23.370;2023-03-14T11:44:37;94190.34;;;18.73;25.49
36932;BME280;22847;42.654;23.370;2023-03-14T11:49:42;94187.84;;;19.55;24.85
36932;BME280;22847;42.654;23.370;2023-03-14T11:52:37;94166.34;;;19.45;25.35
36932;BME280;22847;42.654;23.370;2023-03-14T11:57:29;94144.06;;;19.14;25.09
36932;BME280;22847;42.654;23.370;2023-03-14T11:59:59;94031.31;;;18.44;25.10
36932;BME280;22847;42.654;23.370;2023-03-14T12:02:27;94071.88;;;18.76;24.00
36932;BME280;22847;42.654;23.370;2023-03-14T12:10:16;94161.06;;;19.32;25.14
36932;BME280;22847;42.654;23.370;2023-03-14T12:12:41;93984.16;;;18.61;24.03
36932;BME280;22847;42.654;23.370;2023-03-14T12:15:18;94113.84;;;19.42;24.18
36932;BME280;22847;42.654;23.370;2023-03-14T12:17:44;94159.22;;;19.83;23.58
36932;BME280;22847;42.654;23.370;2023-03-14T12:22:45;94071.38;;;19.68;25.84
36932;BME280;22847;42.654;23.370;2023-03-14T12:27:44;94067.78;;;18.80;24.57
36932;BME280;22847;42.654;23.370;2023-03-14T12:30:26;94115.72;;;18.84;24.53
36932;BME280;22847;42.654;23.370;2023-03-14T12:41:15;93931.88;;;17.41;24.87
36932;BME280;22847;42.654;23.370;2023-03-14T12:43:42;94090.41;;;18.50;25.69
36932;BME280;22847;42.654;23.370;2023-03-14T12:49:07;94088.53;;;18.77;25.04
36932;BME280;22847;42.654;23.370;2023-03-14T12:51:38;93909.66;;;18.01;25.39
36932;BME280;22847;42.654;23.370;2023-03-14T12:57:04;93933.28;;;17.44;25.39
36932;BME280;22847;42.654;23.370;2023-03-14T12:59:58;94069.38;;;17.84;26.22
36932;BME280;22847;42.654;23.370;2023-03-14T13:02:38;94057.38;;;18.08;25.06
36932;BME280;22847;42.654;23.370;2023-03-14T13:05:17;94024.66;;;18.28;25.62
36932;BME280;22847;42.654;23.370;2023-03-14T13:15:17;93999.75;;;18.05;24.53
36932;BME280;22847;42.654;23.370;2023-03-14T13:17:44;94030.69;;;18.55;24.81
36932;BME280;22847;42.654;23.370;2023-03-14T13:20:32;94010.50;;;18.81;24.38
36932;BME280;22847;42.654;23.370;2023-03-14T13:22:59;94012.75;;;17.93;24.81
36932;BME280;22847;42.654;23.370;2023-03-14T13:25:29;94024.13;;;17.87;24.74
36932;BME280;22847;42.654;23.370;2023-03-14T13:27:55;94011.66;;;18.34;24.80
36932;BME280;22847;42.654;23.370;2023-03-14T13:30:28;94013.63;;;18.51;24.41
36932;BME280;22847;42.654;23.370;2023-03-14T13:32:55;94000.22;;;18.46;24.56
36932;BME280;22847;42.654;23.370;2023-03-14T13:35:28;93846.25;;;17.70;24.44
36932;BME280;22847;42.654;23.370;2023-03-14T13:38:01;93944.81;;;17.75;24.97
36932;BME280;22847;42.654;23.370;2023-03-14T13:40:31;93996.19;;;18.44;24.42
36932;BME280;22847;42.654;23.370;2023-03-14T13:43:18;93986.41;;;18.57;24.64
36932;BME280;22847;42.654;23.370;2023-03-14T13:45:49;93939.47;;;18.02;24.70
36932;BME280;22847;42.654;23.370;2023-03-14T13:48:15;93959.13;;;18.19;24.81
36932;BME280;22847;42.654;23.370;2023-03-14T13:51:04;93912.91;;;18.03;23.96
36932;BME280;22847;42.654;23.370;2023-03-14T13:53:31;93940.75;;;18.50;23.78
36932;BME280;22847;42.654;23.370;2023-03-14T13:58:41;93958.84;;;18.34;24.41
36932;BME280;22847;42.654;23.370;2023-03-14T14:03:41;93972.78;;;18.67;25.47
36932;BME280;22847;42.654;23.370;2023-03-14T14:06:16;93925.22;;;18.22;25.26
36932;BME280;22847;42.654;23.370;2023-03-14T14:08:45;93740.63;;;16.35;25.06
36932;BME280;22847;42.654;23.370;2023-03-14T14:11:20;93898.22;;;16.90;25.95
36932;BME280;22847;42.654;23.370;2023-03-14T14:13:46;93892.13;;;16.64;26.24
36932;BME280;22847;42.654;23.370;2023-03-14T14:16:13;93888.91;;;16.75;26.55